createdAt,value
2023-10-21T00:00:07.944Z,0.58
2023-10-21T00:02:35.143Z,0.50
2023-10-21T00:05:02.109Z,0.45
2023-10-21T00:07:29.024Z,0.58
2023-10-21T00:09:55.993Z,0.61
2023-10-21T00:12:22.985Z,0.59
2023-10-21T00:14:50.024Z,0.59
2023-10-21T00:17:16.965Z,0.54
2023-10-21T00:19:44.047Z,0.58
2023-10-21T00:22:11.095Z,0.72
2023-10-21T00:24:39.172Z,0.68
2023-10-21T00:27:06.251Z,0.82
2023-10-21T00:29:33.466Z,0.70
2023-10-21T00:32:00.576Z,0.80
2023-10-21T00:34:27.526Z,1.02
2023-10-21T00:36:54.298Z,0.92
2023-10-21T00:39:21.191Z,0.89
2023-10-21T00:41:48.093Z,1.07
2023-10-21T00:44:15.051Z,0.95
2023-10-21T00:46:41.883Z,1.14
2023-10-21T00:49:08.721Z,1.04
2023-10-21T00:51:38.564Z,0.81
2023-10-21T00:54:05.482Z,0.94
2023-10-21T00:56:32.384Z,0.76
2023-10-21T00:58:59.240Z,0.65
2023-10-21T01:01:26.032Z,0.64
2023-10-21T01:03:53.018Z,0.60
2023-10-21T01:06:20.017Z,0.84
2023-10-21T01:08:46.973Z,0.73
2023-10-21T01:11:13.975Z,0.76
2023-10-21T01:13:40.841Z,0.87
2023-10-21T01:16:07.635Z,0.56
2023-10-21T01:18:34.563Z,0.61
2023-10-21T01:21:01.582Z,0.68
2023-10-21T01:23:28.504Z,0.56
2023-10-21T01:25:55.287Z,0.59
2023-10-21T01:28:22.136Z,0.63
2023-10-21T01:30:48.971Z,0.53
2023-10-21T01:33:16.209Z,0.56
2023-10-21T01:35:43.424Z,0.51
2023-10-21T01:38:10.493Z,0.43
2023-10-21T01:40:37.532Z,0.38
2023-10-21T01:43:04.495Z,0.49
2023-10-21T01:45:31.536Z,0.39
2023-10-21T01:47:58.661Z,0.36
2023-10-21T01:50:25.810Z,0.35
2023-10-21T01:52:52.891Z,0.29
2023-10-21T01:55:19.978Z,0.26
2023-10-21T01:57:47.023Z,0.36
2023-10-21T02:00:14.081Z,0.17
2023-10-21T02:02:41.173Z,0.18
2023-10-21T02:05:08.303Z,0.16
2023-10-21T02:07:35.375Z,0.23
2023-10-21T02:10:02.536Z,0.14
2023-10-21T02:12:29.523Z,0.14
2023-10-21T02:14:56.619Z,0.17
2023-10-21T02:17:23.636Z,0.15
2023-10-21T02:19:50.722Z,0.17
2023-10-21T02:22:17.780Z,0.13
2023-10-21T02:24:44.921Z,0.17
2023-10-21T02:27:11.930Z,0.13
2023-10-21T02:29:39.035Z,0.17
2023-10-21T02:32:06.107Z,0.12
2023-10-21T02:34:33.223Z,0.23
2023-10-21T02:37:00.374Z,0.21
2023-10-21T02:39:27.439Z,0.15
2023-10-21T02:41:54.538Z,0.18
2023-10-21T02:44:21.681Z,0.21
2023-10-21T02:46:48.644Z,0.20
2023-10-21T02:49:15.682Z,0.29
2023-10-21T02:51:42.666Z,0.24
2023-10-21T02:54:09.748Z,0.23
2023-10-21T02:56:36.808Z,0.24
2023-10-21T02:59:03.836Z,0.24
2023-10-21T03:01:30.893Z,0.22
2023-10-21T03:03:58.044Z,0.21
2023-10-21T03:06:25.147Z,0.28
2023-10-21T03:08:52.242Z,0.31
2023-10-21T03:11:19.307Z,0.32
2023-10-21T03:13:46.416Z,0.22
2023-10-21T03:16:13.648Z,0.37
2023-10-21T03:18:40.842Z,0.34
2023-10-21T03:21:07.782Z,0.32
2023-10-21T03:23:34.887Z,0.35
2023-10-21T03:26:01.974Z,0.31
2023-10-21T03:28:29.048Z,0.32
2023-10-21T03:30:56.109Z,0.26
2023-10-21T03:33:23.291Z,0.28
2023-10-21T03:35:50.507Z,0.32
2023-10-21T03:38:17.594Z,0.29
2023-10-21T03:40:44.605Z,0.34
2023-10-21T03:43:11.719Z,0.32
2023-10-21T03:45:38.684Z,0.34
2023-10-21T03:48:05.884Z,0.29
2023-10-21T03:50:32.953Z,0.26
2023-10-21T03:53:00.037Z,0.20
2023-10-21T03:55:27.079Z,0.17
2023-10-21T03:57:54.167Z,0.19
2023-10-21T04:00:21.244Z,0.23
2023-10-21T04:02:48.466Z,0.20
2023-10-21T04:05:15.542Z,0.29
2023-10-21T04:07:42.644Z,0.22
2023-10-21T04:10:10.045Z,0.29
2023-10-21T04:12:38.395Z,0.35
2023-10-21T04:15:05.451Z,0.27
2023-10-21T04:17:32.538Z,0.37
2023-10-21T04:19:59.601Z,0.32
2023-10-21T04:22:26.710Z,0.31
2023-10-21T04:24:53.761Z,0.32
2023-10-21T04:27:20.884Z,0.32
2023-10-21T04:29:48.018Z,0.32
2023-10-21T04:32:15.070Z,0.36
2023-10-21T04:34:42.157Z,0.36
2023-10-21T04:37:09.168Z,0.26
2023-10-21T04:39:36.398Z,0.25
2023-10-21T04:42:03.519Z,0.24
2023-10-21T04:44:30.713Z,0.21
2023-10-21T04:46:57.717Z,0.14
2023-10-21T04:49:24.744Z,0.15
2023-10-21T04:51:51.766Z,0.19
2023-10-21T04:54:18.851Z,0.19
2023-10-21T04:56:45.952Z,0.14
2023-10-21T04:59:12.887Z,0.16
2023-10-21T05:01:39.994Z,0.15
2023-10-21T05:04:07.109Z,0.18
2023-10-21T05:06:35.187Z,0.21
2023-10-21T05:09:02.204Z,0.14
2023-10-21T05:11:29.303Z,0.25
2023-10-21T05:13:56.365Z,0.17
2023-10-21T05:16:23.471Z,0.15
2023-10-21T05:18:50.570Z,0.21
2023-10-21T05:21:17.659Z,0.21
2023-10-21T05:23:44.735Z,0.17
2023-10-21T05:26:11.793Z,0.23
2023-10-21T05:28:39.106Z,0.25
2023-10-21T05:31:06.060Z,0.20
2023-10-21T05:33:33.267Z,0.34
2023-10-21T05:36:00.448Z,0.24
2023-10-21T05:38:27.515Z,0.25
2023-10-21T05:40:54.764Z,0.27
2023-10-21T05:43:21.893Z,0.27
2023-10-21T05:45:48.993Z,0.31
2023-10-21T05:48:16.056Z,0.53
2023-10-21T05:50:43.157Z,0.67
2023-10-21T05:53:10.244Z,0.33
2023-10-21T05:55:37.275Z,0.30
2023-10-21T05:58:04.315Z,0.20
2023-10-21T06:00:31.435Z,0.26
2023-10-21T06:02:58.675Z,0.32
2023-10-21T06:05:25.771Z,0.28
2023-10-21T06:07:53.138Z,0.34
2023-10-21T06:10:20.641Z,0.33
2023-10-21T06:12:49.697Z,0.27
2023-10-21T06:15:16.964Z,0.34
2023-10-21T06:17:44.025Z,0.42
2023-10-21T06:20:11.118Z,0.39
2023-10-21T06:22:38.207Z,0.45
2023-10-21T06:25:05.238Z,0.42
2023-10-21T06:27:32.224Z,0.43
2023-10-21T06:29:59.670Z,0.34
2023-10-21T06:32:27.160Z,0.41
2023-10-21T06:34:54.273Z,0.34
2023-10-21T06:37:21.312Z,0.46
2023-10-21T06:39:49.483Z,0.38
2023-10-21T06:42:16.801Z,0.34
2023-10-21T06:44:43.952Z,0.36
2023-10-21T06:47:10.962Z,0.37
2023-10-21T06:49:38.038Z,0.40
2023-10-21T06:52:05.047Z,0.44
2023-10-21T06:54:32.142Z,0.35
2023-10-21T06:56:59.153Z,0.32
2023-10-21T06:59:26.190Z,0.43
2023-10-21T07:01:53.210Z,0.39
2023-10-21T07:04:20.303Z,0.41
2023-10-21T07:06:47.218Z,0.45
2023-10-21T07:09:14.075Z,0.39
2023-10-21T07:11:41.049Z,0.34
2023-10-21T07:14:07.989Z,0.38
2023-10-21T07:16:34.924Z,0.42
2023-10-21T07:19:01.898Z,0.37
2023-10-21T07:21:28.954Z,0.37
2023-10-21T07:23:56.001Z,0.48
2023-10-21T07:26:22.962Z,0.47
2023-10-21T07:28:49.954Z,0.48
2023-10-21T07:31:17.009Z,0.56
2023-10-21T07:33:44.056Z,0.68
2023-10-21T07:36:11.057Z,0.48
2023-10-21T07:38:37.973Z,0.50
2023-10-21T07:41:04.947Z,0.42
2023-10-21T07:43:31.851Z,0.41
2023-10-21T07:45:58.845Z,0.44
2023-10-21T07:48:25.801Z,0.44
2023-10-21T07:50:52.757Z,0.43
2023-10-21T07:53:19.752Z,0.43
2023-10-21T07:55:46.685Z,0.82
2023-10-21T07:58:13.644Z,2.09
2023-10-21T08:00:40.754Z,1.74
2023-10-21T08:03:07.859Z,1.25
2023-10-21T08:05:35.236Z,4.08
2023-10-21T08:08:02.318Z,7.00
2023-10-21T08:10:29.370Z,5.16
2023-10-21T08:12:56.487Z,5.33
2023-10-21T08:15:23.553Z,1.25
2023-10-21T08:17:50.654Z,1.15
2023-10-21T08:20:17.837Z,0.95
2023-10-21T08:22:44.837Z,0.53
2023-10-21T08:25:11.806Z,0.42
2023-10-21T08:27:38.801Z,0.51
2023-10-21T08:30:05.947Z,0.58
2023-10-21T08:32:33.032Z,0.62
2023-10-21T08:35:00.005Z,0.64
2023-10-21T08:37:26.948Z,0.58
2023-10-21T08:39:53.887Z,0.49
2023-10-21T08:42:20.873Z,0.62
2023-10-21T08:44:47.885Z,0.63
2023-10-21T08:47:15.772Z,0.61
2023-10-21T08:49:44.642Z,0.65
2023-10-21T08:52:11.341Z,0.60
2023-10-21T08:54:38.048Z,0.77
2023-10-21T08:57:04.851Z,0.70
2023-10-21T08:59:31.676Z,0.68
2023-10-21T09:01:58.484Z,0.59
2023-10-21T09:04:25.344Z,0.62
2023-10-21T09:06:52.140Z,0.58
2023-10-21T09:09:18.937Z,0.51
2023-10-21T09:11:45.720Z,0.66
2023-10-21T09:14:12.475Z,0.65
2023-10-21T09:16:39.389Z,0.65
2023-10-21T09:19:06.276Z,0.58
2023-10-21T09:21:33.145Z,0.61
2023-10-21T09:23:59.872Z,0.68
2023-10-21T09:26:26.645Z,0.81
2023-10-21T09:28:53.408Z,0.70
2023-10-21T09:31:20.139Z,0.68
2023-10-21T09:33:46.879Z,0.79
2023-10-21T09:36:22.966Z,0.69
2023-10-21T09:38:50.138Z,0.65
2023-10-21T09:41:16.837Z,0.56
2023-10-21T09:43:43.578Z,0.75
2023-10-21T09:46:10.317Z,0.71
2023-10-21T09:48:37.049Z,0.75
2023-10-21T09:51:04.094Z,0.68
2023-10-21T09:53:31.022Z,0.92
2023-10-21T09:55:57.974Z,0.81
2023-10-21T09:58:24.875Z,0.74
2023-10-21T10:00:51.854Z,0.63
2023-10-21T10:03:18.997Z,0.78
2023-10-21T10:05:46.117Z,0.74
2023-10-21T10:08:13.073Z,0.69
2023-10-21T10:10:40.031Z,0.82
2023-10-21T10:13:07.012Z,0.78
2023-10-21T10:15:33.994Z,0.97
2023-10-21T10:18:01.060Z,0.90
2023-10-21T10:20:28.148Z,0.72
2023-10-21T10:22:55.092Z,0.77
2023-10-21T10:25:22.031Z,0.85
2023-10-21T10:27:48.933Z,0.63
2023-10-21T10:30:15.977Z,0.60
2023-10-21T10:32:42.970Z,0.87
2023-10-21T10:35:09.905Z,0.68
2023-10-21T10:37:36.913Z,0.59
2023-10-21T10:40:03.854Z,0.75
2023-10-21T10:42:30.799Z,0.71
2023-10-21T10:44:57.789Z,0.76
2023-10-21T10:47:24.767Z,0.95
2023-10-21T10:49:51.755Z,0.87
2023-10-21T10:52:18.681Z,1.05
2023-10-21T10:54:45.615Z,1.03
2023-10-21T10:57:12.557Z,0.92
2023-10-21T10:59:39.511Z,0.88
2023-10-21T11:02:06.475Z,0.95
2023-10-21T11:04:33.502Z,1.13
2023-10-21T11:07:00.413Z,0.92
2023-10-21T11:09:27.442Z,1.27
2023-10-21T11:12:08.804Z,1.06
2023-10-21T11:14:37.355Z,1.19
2023-10-21T11:17:04.276Z,1.10
2023-10-21T11:19:31.213Z,0.91
2023-10-21T11:21:58.376Z,1.02
2023-10-21T11:24:25.364Z,1.03
2023-10-21T11:26:52.369Z,1.12
2023-10-21T11:29:19.334Z,1.02
2023-10-21T11:31:46.357Z,0.78
2023-10-21T11:34:13.501Z,1.11
2023-10-21T11:36:40.510Z,1.05
2023-10-21T11:39:07.633Z,1.07
2023-10-21T11:41:34.722Z,1.02
2023-10-21T11:44:01.672Z,1.02
2023-10-21T11:46:28.663Z,0.81
2023-10-21T11:48:55.681Z,0.98
2023-10-21T11:51:22.647Z,1.08
2023-10-21T11:53:49.711Z,0.97
2023-10-21T11:56:16.676Z,0.86
2023-10-21T11:58:43.665Z,1.00
2023-10-21T12:01:10.661Z,0.94
2023-10-21T12:03:37.947Z,1.09
2023-10-21T12:06:07.208Z,0.82
2023-10-21T12:08:34.376Z,0.89
2023-10-21T12:11:01.339Z,0.78
2023-10-21T12:13:28.251Z,1.10
2023-10-21T12:15:55.224Z,0.91
2023-10-21T12:18:22.298Z,0.82
2023-10-21T12:20:49.310Z,1.13
2023-10-21T12:23:16.311Z,1.00
2023-10-21T12:25:43.234Z,0.96
2023-10-21T12:28:10.195Z,1.10
2023-10-21T12:30:37.230Z,1.02
2023-10-21T12:33:04.255Z,1.07
2023-10-21T12:35:31.354Z,1.12
2023-10-21T12:37:58.372Z,0.80
2023-10-21T12:40:25.293Z,0.81
2023-10-21T12:42:52.209Z,0.94
2023-10-21T12:45:19.193Z,0.89
2023-10-21T12:47:46.158Z,0.81
2023-10-21T12:50:13.128Z,0.97
2023-10-21T12:52:40.082Z,1.08
2023-10-21T12:55:07.071Z,0.89
2023-10-21T12:57:34.044Z,0.70
2023-10-21T13:00:01.072Z,1.10
2023-10-21T13:02:28.012Z,1.08
2023-10-21T13:04:55.018Z,0.81
2023-10-21T13:07:22.089Z,0.72
2023-10-21T13:09:49.083Z,0.73
2023-10-21T13:12:17.325Z,0.74
2023-10-21T13:14:44.296Z,0.61
2023-10-21T13:17:11.241Z,0.67
2023-10-21T13:19:38.203Z,0.63
2023-10-21T13:22:05.173Z,0.54
2023-10-21T13:24:32.127Z,0.67
2023-10-21T13:26:59.314Z,0.55
2023-10-21T13:29:26.210Z,0.51
2023-10-21T13:31:53.230Z,0.80
2023-10-21T13:34:20.289Z,0.75
2023-10-21T13:36:47.249Z,0.57
2023-10-21T13:39:14.219Z,0.72
2023-10-21T13:41:41.410Z,0.75
2023-10-21T13:44:08.339Z,0.79
2023-10-21T13:46:35.269Z,0.65
2023-10-21T13:49:02.260Z,0.92
2023-10-21T13:51:29.272Z,0.70
2023-10-21T13:53:56.262Z,0.67
2023-10-21T13:56:23.236Z,0.78
2023-10-21T13:58:50.160Z,0.84
2023-10-21T14:01:17.213Z,0.82
2023-10-21T14:03:44.323Z,0.80
2023-10-21T14:06:11.464Z,0.79
2023-10-21T14:08:38.516Z,1.03
2023-10-21T14:11:05.512Z,0.98
2023-10-21T14:13:32.429Z,0.94
2023-10-21T14:15:59.521Z,0.84
2023-10-21T14:18:26.803Z,0.95
2023-10-21T14:20:53.896Z,0.73
2023-10-21T14:23:20.893Z,0.80
2023-10-21T14:25:47.922Z,0.73
2023-10-21T14:28:14.891Z,0.75
2023-10-21T14:30:41.900Z,0.94
2023-10-21T14:33:08.947Z,0.84
2023-10-21T14:35:35.942Z,1.07
2023-10-21T14:38:02.874Z,1.16
2023-10-21T14:40:29.832Z,1.02
2023-10-21T14:42:56.813Z,0.88
2023-10-21T14:45:23.801Z,0.95
2023-10-21T14:47:50.848Z,1.13
2023-10-21T14:50:17.774Z,0.99
2023-10-21T14:52:44.720Z,0.89
2023-10-21T14:55:11.698Z,1.08
2023-10-21T14:57:38.685Z,0.86
2023-10-21T15:00:05.762Z,0.89
2023-10-21T15:02:32.748Z,1.04
2023-10-21T15:04:59.868Z,0.86
2023-10-21T15:07:26.865Z,0.87
2023-10-21T15:09:53.822Z,0.79
2023-10-21T15:12:20.852Z,0.85
2023-10-21T15:14:55.786Z,0.98
2023-10-21T15:17:26.612Z,1.13
2023-10-21T15:19:53.566Z,0.88
2023-10-21T15:22:20.570Z,0.78
2023-10-21T15:24:47.582Z,0.82
2023-10-21T15:27:14.597Z,0.85
2023-10-21T15:29:41.578Z,0.87
2023-10-21T15:32:08.604Z,0.75
2023-10-21T15:34:36.038Z,0.77
2023-10-21T15:37:03.206Z,0.72
2023-10-21T15:39:30.235Z,0.63
2023-10-21T15:41:57.182Z,0.93
2023-10-21T15:44:24.224Z,0.76
2023-10-21T15:46:51.183Z,0.91
2023-10-21T15:49:18.150Z,0.98
2023-10-21T15:51:45.222Z,1.02
2023-10-21T15:54:12.282Z,0.89
2023-10-21T15:56:39.235Z,1.11
2023-10-21T15:59:06.188Z,1.07
2023-10-21T16:01:33.140Z,1.14
2023-10-21T16:04:00.678Z,0.74
2023-10-21T16:06:27.764Z,0.91
2023-10-21T16:08:54.716Z,0.89
2023-10-21T16:11:21.652Z,0.90
2023-10-21T16:13:48.562Z,0.97
2023-10-21T16:16:15.612Z,1.01
2023-10-21T16:18:42.693Z,0.96
2023-10-21T16:21:09.951Z,0.79
2023-10-21T16:23:37.017Z,0.99
2023-10-21T16:26:04.038Z,0.70
2023-10-21T16:28:30.994Z,0.83
2023-10-21T16:30:57.909Z,0.74
2023-10-21T16:33:25.190Z,0.84
2023-10-21T16:35:52.381Z,0.84
2023-10-21T16:38:19.279Z,0.84
2023-10-21T16:40:46.334Z,0.78
2023-10-21T16:43:13.280Z,0.82
2023-10-21T16:45:40.362Z,0.85
2023-10-21T16:48:07.373Z,1.03
2023-10-21T16:50:34.374Z,0.90
2023-10-21T16:53:01.336Z,1.10
2023-10-21T16:55:28.304Z,0.95
2023-10-21T16:57:55.263Z,0.95
2023-10-21T17:00:22.256Z,1.00
2023-10-21T17:02:49.225Z,0.96
2023-10-21T17:05:16.375Z,1.02
2023-10-21T17:07:43.274Z,1.11
2023-10-21T17:10:10.254Z,1.27
2023-10-21T17:12:37.231Z,1.22
2023-10-21T17:15:04.289Z,1.25
2023-10-21T17:17:31.295Z,1.26
2023-10-21T17:19:58.258Z,1.14
2023-10-21T17:22:25.173Z,1.38
2023-10-21T17:24:52.260Z,1.11
2023-10-21T17:27:19.263Z,1.06
2023-10-21T17:29:46.256Z,1.17
2023-10-21T17:32:13.157Z,1.20
2023-10-21T17:34:40.146Z,1.09
2023-10-21T17:37:07.100Z,0.95
2023-10-21T17:39:34.106Z,1.05
2023-10-21T17:42:01.141Z,1.04
2023-10-21T17:44:32.476Z,1.03
2023-10-21T17:46:59.963Z,1.20
2023-10-21T17:49:26.986Z,1.48
2023-10-21T17:51:53.932Z,1.57
2023-10-21T17:54:20.989Z,1.05
2023-10-21T17:56:47.963Z,0.91
2023-10-21T17:59:14.897Z,0.96
2023-10-21T18:01:41.888Z,1.04
2023-10-21T18:04:09.000Z,1.35
2023-10-21T18:06:36.122Z,1.43
2023-10-21T18:09:03.182Z,2.04
2023-10-21T18:11:30.120Z,2.42
2023-10-21T18:13:57.078Z,2.10
2023-10-21T18:16:24.078Z,1.55
2023-10-21T18:18:51.085Z,1.35
2023-10-21T18:21:18.112Z,1.21
2023-10-21T18:23:45.037Z,1.34
2023-10-21T18:26:11.963Z,1.25
2023-10-21T18:28:39.003Z,1.36
2023-10-21T18:31:06.003Z,1.40
2023-10-21T18:33:32.987Z,1.45
2023-10-21T18:36:00.106Z,1.69
2023-10-21T18:38:27.131Z,2.38
2023-10-21T18:40:54.136Z,1.80
2023-10-21T18:43:21.163Z,1.36
2023-10-21T18:45:48.209Z,1.49
2023-10-21T18:48:15.300Z,1.37
2023-10-21T18:50:42.404Z,1.41
2023-10-21T18:53:09.322Z,1.34
2023-10-21T18:55:36.324Z,1.28
2023-10-21T18:58:03.484Z,1.40
2023-10-21T19:00:30.486Z,1.43
2023-10-21T19:02:57.496Z,1.64
2023-10-21T19:05:24.461Z,1.89
2023-10-21T19:07:51.482Z,2.26
2023-10-21T19:10:18.529Z,1.73
2023-10-21T19:12:45.642Z,1.60
2023-10-21T19:15:12.765Z,1.89
2023-10-21T19:17:39.811Z,1.95
2023-10-21T19:20:06.860Z,1.98
2023-10-21T19:22:33.843Z,2.08
2023-10-21T19:25:00.836Z,2.25
2023-10-21T19:27:27.935Z,2.36
2023-10-21T19:29:55.002Z,1.75
2023-10-21T19:32:22.005Z,1.70
2023-10-21T19:34:49.039Z,1.74
2023-10-21T19:37:16.089Z,1.70
2023-10-21T19:39:43.147Z,1.64
2023-10-21T19:42:10.202Z,1.86
2023-10-21T19:44:37.216Z,1.86
2023-10-21T19:47:04.242Z,3.03
2023-10-21T19:49:31.283Z,3.30
2023-10-21T19:51:58.304Z,3.38
2023-10-21T19:54:25.316Z,2.79
2023-10-21T19:56:52.329Z,2.78
2023-10-21T19:59:19.378Z,2.63
2023-10-21T20:01:46.419Z,2.04
2023-10-21T20:04:13.518Z,1.90
2023-10-21T20:06:40.613Z,2.02
2023-10-21T20:09:07.654Z,2.68
2023-10-21T20:11:34.686Z,5.32
2023-10-21T20:14:01.644Z,3.04
2023-10-21T20:16:28.658Z,2.34
2023-10-21T20:18:55.718Z,2.89
2023-10-21T20:21:23.436Z,2.97
2023-10-21T20:23:50.522Z,3.50
2023-10-21T20:26:17.528Z,4.42
2023-10-21T20:28:44.437Z,3.92
2023-10-21T20:31:11.521Z,3.12
2023-10-21T20:33:39.264Z,2.79
2023-10-21T20:36:06.642Z,3.04
2023-10-21T20:38:33.863Z,2.84
2023-10-21T20:41:00.997Z,2.37
2023-10-21T20:43:28.398Z,2.53
2023-10-21T20:45:55.448Z,2.45
2023-10-21T20:48:22.568Z,2.64
2023-10-21T20:50:49.635Z,2.39
2023-10-21T20:53:17.083Z,2.54
2023-10-21T20:55:44.877Z,2.22
2023-10-21T20:58:11.998Z,2.19
2023-10-21T21:00:39.097Z,2.23
2023-10-21T21:03:06.572Z,2.11
2023-10-21T21:05:34.116Z,2.28
2023-10-21T21:08:00.889Z,2.13
2023-10-21T21:10:27.675Z,1.84
2023-10-21T21:12:54.521Z,1.65
2023-10-21T21:15:21.311Z,1.82
2023-10-21T21:17:48.148Z,1.76
2023-10-21T21:20:15.036Z,1.86
2023-10-21T21:22:41.796Z,1.94
2023-10-21T21:25:08.558Z,1.60
2023-10-21T21:27:35.298Z,1.53
2023-10-21T21:30:02.208Z,1.63
2023-10-21T21:32:29.095Z,1.75
2023-10-21T21:34:56.032Z,1.91
2023-10-21T21:37:22.759Z,2.07
2023-10-21T21:39:50.111Z,2.10
2023-10-21T21:42:17.187Z,2.47
2023-10-21T21:44:43.922Z,1.93
2023-10-21T21:47:10.714Z,1.81
2023-10-21T21:49:37.754Z,1.91
2023-10-21T21:52:04.672Z,1.82
2023-10-21T21:54:31.486Z,1.86
2023-10-21T21:56:58.355Z,1.96
2023-10-21T21:59:25.097Z,2.00
2023-10-21T22:01:51.877Z,1.69
2023-10-21T22:04:18.997Z,1.54
2023-10-21T22:06:46.161Z,1.48
2023-10-21T22:09:13.214Z,1.39
2023-10-21T22:11:40.237Z,1.38
2023-10-21T22:14:07.406Z,1.52
2023-10-21T22:16:34.384Z,1.36
2023-10-21T22:19:01.568Z,1.51
2023-10-21T22:21:28.645Z,1.44
2023-10-21T22:24:01.756Z,1.42
2023-10-21T22:26:29.309Z,1.41
2023-10-21T22:28:56.481Z,1.35
2023-10-21T22:31:25.046Z,1.41
2023-10-21T22:33:53.699Z,1.55
2023-10-21T22:36:20.787Z,1.38
2023-10-21T22:38:47.790Z,1.40
2023-10-21T22:41:14.763Z,1.43
2023-10-21T22:43:41.700Z,1.31
2023-10-21T22:46:08.691Z,1.43
2023-10-21T22:48:35.743Z,1.45
2023-10-21T22:51:02.874Z,1.51
2023-10-21T22:53:30.111Z,1.36
2023-10-21T22:55:57.061Z,1.46
2023-10-21T22:58:24.027Z,1.31
2023-10-21T23:00:50.980Z,1.47
2023-10-21T23:03:18.004Z,1.59
2023-10-21T23:05:45.183Z,1.45
2023-10-21T23:08:12.186Z,1.40
2023-10-21T23:10:39.243Z,1.51
2023-10-21T23:13:06.183Z,1.46
2023-10-21T23:15:33.185Z,1.61
2023-10-21T23:18:00.340Z,1.68
2023-10-21T23:20:27.343Z,1.66
2023-10-21T23:22:54.349Z,1.56
2023-10-21T23:25:21.881Z,1.60
2023-10-21T23:27:49.096Z,1.73
2023-10-21T23:30:16.397Z,2.06
2023-10-21T23:32:43.292Z,1.87
2023-10-21T23:35:10.344Z,1.75
2023-10-21T23:37:37.304Z,1.66
2023-10-21T23:40:04.257Z,1.57
2023-10-21T23:42:31.158Z,1.65
2023-10-21T23:44:58.099Z,1.54
2023-10-21T23:47:25.095Z,1.24
2023-10-21T23:49:52.015Z,1.43
2023-10-21T23:52:18.896Z,1.35
2023-10-21T23:54:45.876Z,1.25
2023-10-21T23:57:12.812Z,1.40
2023-10-21T23:59:39.772Z,1.37
